createdAt,value
2019-03-05T00:00:17.295Z,97874.02
2019-03-05T00:03:30.891Z,97869.44
2019-03-05T00:06:44.737Z,97876.42
2019-03-05T00:09:58.259Z,97887.56
2019-03-05T00:13:11.757Z,97880.41
2019-03-05T00:16:25.350Z,97885.02
2019-03-05T00:19:38.830Z,97882.96
2019-03-05T00:22:52.522Z,97891.61
2019-03-05T00:26:06.300Z,97884.23
2019-03-05T00:30:00.371Z,97882.49
2019-03-05T00:33:48.719Z,97879.25
2019-03-05T00:37:09.986Z,97886.16
2019-03-05T00:40:45.726Z,97880.05
2019-03-05T00:44:23.573Z,97900.16
2019-03-05T00:48:03.591Z,97898.75
2019-03-05T00:51:38.797Z,97896.87
2019-03-05T00:55:13.408Z,97903.25
2019-03-05T00:58:57.931Z,97905.51
2019-03-05T01:02:38.276Z,97899.93
2019-03-05T01:06:16.427Z,97909.09
2019-03-05T01:09:30.518Z,97901.96
2019-03-05T01:12:44.501Z,97910.62
2019-03-05T01:15:58.085Z,97902.97
2019-03-05T01:19:11.681Z,97911.63
2019-03-05T01:22:25.175Z,97902.44
2019-03-05T01:25:38.758Z,97919.25
2019-03-05T01:28:52.613Z,97908.19
2019-03-05T01:32:28.637Z,97909.33
2019-03-05T01:35:48.359Z,97907.52
2019-03-05T01:39:16.615Z,97906.98
2019-03-05T01:42:30.251Z,97908.05
2019-03-05T01:45:43.946Z,97895.97
2019-03-05T01:48:57.830Z,97901.92
2019-03-05T01:52:11.599Z,97903.63
2019-03-05T01:55:25.186Z,97902.87
2019-03-05T01:58:38.685Z,97899.19
2019-03-05T02:01:52.544Z,97897.18
2019-03-05T02:05:06.590Z,97897.18
2019-03-05T02:08:20.081Z,97903.28
2019-03-05T02:11:33.663Z,97912.21
2019-03-05T02:14:47.538Z,97906.86
2019-03-05T02:18:01.324Z,97908.13
2019-03-05T02:21:15.029Z,97910.55
2019-03-05T02:25:05.529Z,97900.77
2019-03-05T02:28:59.056Z,97907.89
2019-03-05T02:32:41.514Z,97912.60
2019-03-05T02:36:16.432Z,97911.97
2019-03-05T02:40:02.415Z,97903.05
2019-03-05T02:43:51.797Z,97903.28
2019-03-05T02:47:35.670Z,97892.99
2019-03-05T02:51:15.411Z,97898.33
2019-03-05T02:54:56.567Z,97901.77
2019-03-05T02:58:09.363Z,97900.08
2019-03-05T03:01:50.845Z,97901.98
2019-03-05T03:05:12.869Z,97905.43
2019-03-05T03:08:26.726Z,97906.19
2019-03-05T03:11:40.322Z,97908.36
2019-03-05T03:14:53.819Z,97911.13
2019-03-05T03:18:07.297Z,97902.49
2019-03-05T03:21:20.778Z,97910.89
2019-03-05T03:24:34.554Z,97913.44
2019-03-05T03:27:48.141Z,97908.43
2019-03-05T03:31:01.635Z,97905.00
2019-03-05T03:34:15.127Z,97906.80
2019-03-05T03:37:28.945Z,97900.42
2019-03-05T03:40:42.449Z,97903.86
2019-03-05T03:43:56.479Z,97897.63
2019-03-05T03:47:10.201Z,97902.75
2019-03-05T03:50:23.817Z,97909.37
2019-03-05T03:53:37.397Z,97896.41
2019-03-05T03:56:50.888Z,97904.69
2019-03-05T04:00:05.136Z,97904.78
2019-03-05T04:03:18.918Z,97904.04
2019-03-05T04:06:32.616Z,97904.53
2019-03-05T04:09:46.108Z,97904.51
2019-03-05T04:12:59.865Z,97899.42
2019-03-05T04:16:13.677Z,97899.95
2019-03-05T04:19:30.698Z,97900.73
2019-03-05T04:22:44.266Z,97905.78
2019-03-05T04:25:57.980Z,97910.89
2019-03-05T04:29:11.467Z,97908.55
2019-03-05T04:32:24.965Z,97910.58
2019-03-05T04:35:38.455Z,97900.16
2019-03-05T04:38:52.479Z,97905.48
2019-03-05T04:42:06.059Z,97902.66
2019-03-05T04:45:35.451Z,97904.19
2019-03-05T04:49:09.606Z,97909.75
2019-03-05T04:52:27.160Z,97910.81
2019-03-05T04:55:40.997Z,97908.77
2019-03-05T04:58:54.763Z,97893.70
2019-03-05T05:02:08.344Z,97903.88
2019-03-05T05:05:21.954Z,97900.08
2019-03-05T05:08:35.706Z,97902.61
2019-03-05T05:11:49.474Z,97899.80
2019-03-05T05:15:04.988Z,97905.57
2019-03-05T05:18:18.471Z,97910.77
2019-03-05T05:21:31.960Z,97907.83
2019-03-05T05:24:46.115Z,97901.36
2019-03-05T05:27:59.912Z,97904.87
2019-03-05T05:31:13.651Z,97911.55
2019-03-05T05:34:27.356Z,97912.83
2019-03-05T05:37:40.948Z,97911.28
2019-03-05T05:40:54.708Z,97905.81
2019-03-05T05:44:08.192Z,97918.16
2019-03-05T05:47:21.684Z,97915.61
2019-03-05T05:50:35.161Z,97916.36
2019-03-05T05:53:48.951Z,97929.64
2019-03-05T05:57:02.563Z,97909.25
2019-03-05T06:00:16.559Z,97909.27
2019-03-05T06:03:30.043Z,97902.61
2019-03-05T06:06:43.531Z,97907.95
2019-03-05T06:09:57.118Z,97908.72
2019-03-05T06:13:10.610Z,97918.91
2019-03-05T06:16:24.382Z,97917.77
2019-03-05T06:19:38.176Z,97910.28
2019-03-05T06:22:51.766Z,97920.28
2019-03-05T06:26:08.444Z,97905.63
2019-03-05T06:29:20.854Z,97925.02
2019-03-05T06:32:34.455Z,97924.27
2019-03-05T06:35:47.948Z,97920.31
2019-03-05T06:39:01.443Z,97932.00
2019-03-05T06:42:14.930Z,97917.38
2019-03-05T06:45:28.688Z,97930.34
2019-03-05T06:48:42.175Z,97920.65
2019-03-05T06:51:56.031Z,97922.42
2019-03-05T06:55:10.590Z,97919.38
2019-03-05T06:58:24.084Z,97923.80
2019-03-05T07:01:38.061Z,97929.19
2019-03-05T07:04:57.192Z,97932.98
2019-03-05T07:08:10.681Z,97922.66
2019-03-05T07:11:55.429Z,97917.06
2019-03-05T07:16:05.207Z,97924.45
2019-03-05T07:19:30.366Z,97918.38
2019-03-05T07:23:15.423Z,97926.41
2019-03-05T07:26:29.120Z,97921.58
2019-03-05T07:29:43.014Z,97926.48
2019-03-05T07:32:58.273Z,97931.48
2019-03-05T07:36:11.871Z,97923.73
2019-03-05T07:39:25.881Z,97929.94
2019-03-05T07:42:39.873Z,97916.11
2019-03-05T07:45:53.464Z,97936.11
2019-03-05T07:49:07.071Z,97934.97
2019-03-05T07:52:21.374Z,97912.42
2019-03-05T07:55:34.869Z,97901.47
2019-03-05T07:58:48.698Z,97907.45
2019-03-05T08:02:02.480Z,97904.66
2019-03-05T08:05:16.478Z,97909.00
2019-03-05T08:09:14.979Z,97909.78
2019-03-05T08:13:05.863Z,97919.78
2019-03-05T08:16:29.992Z,97926.72
2019-03-05T08:19:43.608Z,97938.20
2019-03-05T08:22:57.649Z,97933.02
2019-03-05T08:26:11.733Z,97946.20
2019-03-05T08:29:25.484Z,97946.78
2019-03-05T08:32:39.030Z,97948.88
2019-03-05T08:35:52.824Z,97949.14
2019-03-05T08:39:06.620Z,97937.09
2019-03-05T08:42:20.885Z,97950.62
2019-03-05T08:45:34.869Z,97946.05
2019-03-05T08:48:51.458Z,97953.01
2019-03-05T08:52:07.390Z,97963.24
2019-03-05T08:55:23.201Z,97974.06
2019-03-05T08:58:39.444Z,97975.76
2019-03-05T09:01:54.520Z,97984.45
2019-03-05T09:05:10.313Z,97981.08
2019-03-05T09:08:26.307Z,97989.17
2019-03-05T09:11:39.793Z,97987.42
2019-03-05T09:14:53.391Z,98001.53
2019-03-05T09:18:06.981Z,98014.56
2019-03-05T09:21:20.819Z,98028.77
2019-03-05T09:24:34.413Z,98049.55
2019-03-05T09:27:47.999Z,98028.23
2019-03-05T09:31:01.700Z,98033.39
2019-03-05T09:34:15.282Z,98040.85
2019-03-05T09:37:28.879Z,98024.95
2019-03-05T09:40:42.489Z,98041.17
2019-03-05T09:43:56.175Z,98034.27
2019-03-05T09:47:09.902Z,98031.98
2019-03-05T09:50:23.647Z,98030.07
2019-03-05T09:53:37.246Z,98035.32
2019-03-05T09:56:51.109Z,98041.28
2019-03-05T10:00:06.400Z,98041.30
2019-03-05T10:03:19.945Z,98042.44
2019-03-05T10:06:33.593Z,98042.21
2019-03-05T10:09:47.768Z,98031.62
2019-03-05T10:13:04.213Z,98037.25
2019-03-05T10:16:18.664Z,98035.81
2019-03-05T10:19:32.392Z,98040.64
2019-03-05T10:22:46.851Z,98040.40
2019-03-05T10:26:00.628Z,98038.09
2019-03-05T10:29:14.132Z,98034.77
2019-03-05T10:32:27.738Z,98036.96
2019-03-05T10:35:41.327Z,98035.15
2019-03-05T10:38:57.643Z,98035.05
2019-03-05T10:42:10.928Z,98037.88
2019-03-05T10:45:25.396Z,98032.77
2019-03-05T10:48:39.209Z,98028.56
2019-03-05T10:51:53.186Z,98026.63
2019-03-05T10:55:07.464Z,98027.64
2019-03-05T10:58:32.720Z,98024.73
2019-03-05T11:01:36.855Z,98031.69
2019-03-05T11:04:52.401Z,98031.23
2019-03-05T11:08:07.209Z,98034.52
2019-03-05T11:11:21.223Z,98029.43
2019-03-05T11:14:35.250Z,98029.83
2019-03-05T11:17:49.155Z,98039.53
2019-03-05T11:21:03.869Z,98037.83
2019-03-05T11:24:17.372Z,98040.13
2019-03-05T11:27:30.946Z,98026.37
2019-03-05T11:30:44.748Z,98040.66
2019-03-05T11:33:58.664Z,98046.78
2019-03-05T11:37:12.274Z,98043.56
2019-03-05T11:40:26.080Z,98036.94
2019-03-05T11:43:39.673Z,98043.91
2019-03-05T11:46:53.159Z,98043.59
2019-03-05T11:50:07.583Z,98033.88
2019-03-05T11:53:21.277Z,98027.31
2019-03-05T11:56:34.785Z,98033.73
2019-03-05T11:59:48.480Z,98022.93
2019-03-05T12:03:02.054Z,98032.53
2019-03-05T12:06:15.555Z,98045.62
2019-03-05T12:13:10.031Z,98053.45
2019-03-05T12:16:23.780Z,98060.84
2019-03-05T12:19:37.278Z,98069.86
2019-03-05T12:22:50.856Z,98055.56
2019-03-05T12:26:04.560Z,98053.36
2019-03-05T12:29:18.161Z,98060.36
2019-03-05T12:32:31.760Z,98064.82
2019-03-05T12:35:45.563Z,98048.18
2019-03-05T12:38:59.292Z,98038.67
2019-03-05T12:42:12.886Z,98033.20
2019-03-05T12:45:26.475Z,98032.22
2019-03-05T12:48:40.595Z,98035.61
2019-03-05T12:51:54.431Z,98044.50
2019-03-05T12:55:08.267Z,98040.62
2019-03-05T12:58:22.257Z,98045.40
2019-03-05T13:01:35.763Z,98052.06
2019-03-05T13:04:49.509Z,98059.33
2019-03-05T13:08:03.405Z,98069.36
2019-03-05T13:11:16.990Z,98068.69
2019-03-05T13:14:30.729Z,98063.02
2019-03-05T13:17:47.139Z,98063.92
2019-03-05T13:21:03.520Z,98071.64
2019-03-05T13:24:15.221Z,98076.75
2019-03-05T13:27:29.096Z,98078.34
2019-03-05T13:30:42.959Z,98081.97
2019-03-05T13:33:56.542Z,98092.80
2019-03-05T13:37:10.147Z,98095.83
2019-03-05T13:40:24.899Z,98099.54
2019-03-05T13:43:38.503Z,98089.98
2019-03-05T13:46:52.015Z,98089.26
2019-03-05T13:50:38.496Z,98098.69
2019-03-05T13:54:21.494Z,98110.98
2019-03-05T13:58:16.250Z,98111.25
2019-03-05T14:01:29.955Z,98101.02
2019-03-05T14:04:52.464Z,98101.29
2019-03-05T14:08:35.320Z,98119.61
2019-03-05T14:11:50.103Z,98104.45
2019-03-05T14:15:04.568Z,98104.94
2019-03-05T14:18:18.282Z,98121.50
2019-03-05T14:21:31.894Z,98118.34
2019-03-05T14:24:45.480Z,98119.89
2019-03-05T14:27:59.240Z,98126.80
2019-03-05T14:31:12.836Z,98137.59
2019-03-05T14:34:26.410Z,98148.21
2019-03-05T14:37:40.033Z,98144.78
2019-03-05T14:40:55.091Z,98152.34
2019-03-05T14:44:09.148Z,98161.73
2019-03-05T14:47:23.656Z,98151.50
2019-03-05T14:50:37.489Z,98167.87
2019-03-05T14:53:51.189Z,98162.20
2019-03-05T14:57:04.879Z,98159.64
2019-03-05T15:00:19.265Z,98174.62
2019-03-05T15:03:33.228Z,98168.95
2019-03-05T15:06:48.077Z,98168.20
2019-03-05T15:10:01.885Z,98172.55
2019-03-05T15:13:19.911Z,98163.16
2019-03-05T15:16:31.734Z,98165.82
2019-03-05T15:19:45.802Z,98177.55
2019-03-05T15:22:59.455Z,98174.56
2019-03-05T15:26:13.017Z,98173.77
2019-03-05T15:29:27.000Z,98174.78
2019-03-05T15:32:40.780Z,98170.48
2019-03-05T15:35:54.538Z,98167.04
2019-03-05T15:39:08.195Z,98169.66
2019-03-05T15:42:21.889Z,98161.05
2019-03-05T15:45:35.591Z,98156.41
2019-03-05T15:48:49.681Z,98153.50
2019-03-05T15:52:03.347Z,98165.66
2019-03-05T15:55:17.070Z,98174.17
2019-03-05T15:58:30.683Z,98173.21
2019-03-05T16:01:44.377Z,98171.42
2019-03-05T16:04:57.896Z,98175.84
2019-03-05T16:08:11.768Z,98181.23
2019-03-05T16:11:25.669Z,98181.50
2019-03-05T16:14:39.169Z,98190.62
2019-03-05T16:17:54.404Z,98195.25
2019-03-05T16:21:08.205Z,98192.73
2019-03-05T16:24:22.022Z,98211.00
2019-03-05T16:27:35.934Z,98206.22
2019-03-05T16:31:12.574Z,98221.05
2019-03-05T16:34:58.377Z,98225.46
2019-03-05T16:38:26.548Z,98217.09
2019-03-05T16:41:58.624Z,98233.79
2019-03-05T16:45:40.949Z,98231.75
2019-03-05T16:49:13.423Z,98231.13
2019-03-05T16:52:46.323Z,98224.55
2019-03-05T16:56:24.982Z,98232.97
2019-03-05T16:59:57.028Z,98240.66
2019-03-05T17:03:30.363Z,98254.44
2019-03-05T17:07:07.237Z,98251.11
2019-03-05T17:10:49.215Z,98255.47
2019-03-05T17:14:03.171Z,98259.80
2019-03-05T17:17:16.894Z,98266.41
2019-03-05T17:20:30.884Z,98272.15
2019-03-05T17:23:44.486Z,98273.58
2019-03-05T17:26:58.084Z,98284.53
2019-03-05T17:30:13.329Z,98280.45
2019-03-05T17:33:26.869Z,98280.70
2019-03-05T17:36:41.040Z,98280.95
2019-03-05T17:39:54.691Z,98297.53
2019-03-05T17:43:08.383Z,98309.00
2019-03-05T17:46:22.269Z,98309.28
2019-03-05T17:49:36.034Z,98318.19
2019-03-05T17:52:49.647Z,98327.86
2019-03-05T17:56:03.327Z,98334.23
2019-03-05T17:59:17.228Z,98336.78
2019-03-05T18:02:31.099Z,98335.75
2019-03-05T18:05:44.694Z,98344.67
2019-03-05T18:08:58.567Z,98343.68
2019-03-05T18:12:12.252Z,98340.36
2019-03-05T18:15:25.970Z,98348.53
2019-03-05T18:18:39.473Z,98350.05
2019-03-05T18:21:53.188Z,98357.03
2019-03-05T18:25:07.630Z,98363.54
2019-03-05T18:28:21.528Z,98373.74
2019-03-05T18:31:35.363Z,98376.81
2019-03-05T18:34:49.258Z,98372.46
2019-03-05T18:38:02.963Z,98382.11
2019-03-05T18:41:16.660Z,98385.30
2019-03-05T18:44:30.159Z,98387.75
2019-03-05T18:47:43.848Z,98385.67
2019-03-05T18:50:57.762Z,98391.27
2019-03-05T18:54:11.265Z,98395.63
2019-03-05T18:57:25.168Z,98394.27
2019-03-05T19:00:38.955Z,98397.20
2019-03-05T19:03:52.441Z,98397.41
2019-03-05T19:07:06.050Z,98402.12
2019-03-05T19:10:20.390Z,98407.89
2019-03-05T19:13:34.009Z,98411.64
2019-03-05T19:16:47.738Z,98410.39
2019-03-05T19:20:01.603Z,98404.64
2019-03-05T19:23:15.409Z,98411.64
2019-03-05T19:26:28.996Z,98405.53
2019-03-05T19:29:42.596Z,98408.86
2019-03-05T19:32:56.292Z,98410.31
2019-03-05T19:36:09.878Z,98407.13
2019-03-05T19:39:23.475Z,98418.20
2019-03-05T19:42:37.382Z,98421.02
2019-03-05T19:45:51.268Z,98426.74
2019-03-05T19:49:04.959Z,98426.44
2019-03-05T19:52:18.460Z,98423.06
2019-03-05T19:55:32.526Z,98437.56
2019-03-05T19:58:46.432Z,98431.19
2019-03-05T20:01:59.919Z,98434.77
2019-03-05T20:05:15.100Z,98437.70
2019-03-05T20:08:28.955Z,98438.44
2019-03-05T20:11:43.152Z,98439.30
2019-03-05T20:14:57.215Z,98447.19
2019-03-05T20:18:10.915Z,98437.06
2019-03-05T20:21:24.629Z,98434.23
2019-03-05T20:24:38.227Z,98428.66
2019-03-05T20:27:52.340Z,98429.05
2019-03-05T20:31:06.610Z,98433.69
2019-03-05T20:34:21.237Z,98434.08
2019-03-05T20:37:34.960Z,98431.55
2019-03-05T20:40:48.539Z,98428.23
2019-03-05T20:44:02.301Z,98431.30
2019-03-05T20:47:16.104Z,98427.59
2019-03-05T20:50:29.815Z,98433.85
2019-03-05T20:53:43.604Z,98433.72
2019-03-05T20:56:57.677Z,98441.18
2019-03-05T21:00:31.168Z,98443.59
2019-03-05T21:03:45.342Z,98447.60
2019-03-05T21:07:01.283Z,98444.02
2019-03-05T21:10:15.018Z,98446.78
2019-03-05T21:13:28.504Z,98449.34
2019-03-05T21:16:42.197Z,98454.44
2019-03-05T21:19:55.679Z,98456.72
2019-03-05T21:23:09.363Z,98462.53
2019-03-05T21:26:23.216Z,98461.20
2019-03-05T21:29:37.535Z,98458.36
2019-03-05T21:32:51.121Z,98451.94
2019-03-05T21:36:04.702Z,98456.41
2019-03-05T21:39:18.856Z,98455.91
2019-03-05T21:42:32.341Z,98451.84
2019-03-05T21:45:46.097Z,98449.59
2019-03-05T21:48:59.573Z,98443.59
2019-03-05T21:52:13.059Z,98450.02
2019-03-05T21:55:26.657Z,98448.44
2019-03-05T21:58:40.247Z,98451.09
2019-03-05T22:01:53.741Z,98451.02
2019-03-05T22:05:07.654Z,98449.23
2019-03-05T22:08:21.255Z,98448.05
2019-03-05T22:11:34.746Z,98446.01
2019-03-05T22:14:48.497Z,98447.08
2019-03-05T22:18:02.193Z,98442.94
2019-03-05T22:21:15.781Z,98446.69
2019-03-05T22:24:29.251Z,98448.70
2019-03-05T22:27:42.856Z,98442.38
2019-03-05T22:30:56.437Z,98438.52
2019-03-05T22:34:10.035Z,98439.94
2019-03-05T22:37:23.752Z,98440.70
2019-03-05T22:40:37.657Z,98439.50
2019-03-05T22:43:51.247Z,98440.96
2019-03-05T22:47:04.729Z,98442.62
2019-03-05T22:50:20.414Z,98437.56
2019-03-05T22:53:33.941Z,98435.27
2019-03-05T22:56:47.831Z,98434.34
2019-03-05T23:00:01.402Z,98427.34
2019-03-05T23:03:16.810Z,98426.20
2019-03-05T23:06:30.786Z,98427.25
2019-03-05T23:09:44.575Z,98419.36
2019-03-05T23:12:58.376Z,98414.77
2019-03-05T23:16:12.650Z,98426.38
2019-03-05T23:19:26.964Z,98420.74
2019-03-05T23:22:40.661Z,98422.06
2019-03-05T23:25:54.350Z,98423.75
2019-03-05T23:29:08.966Z,98415.07
2019-03-05T23:32:22.851Z,98406.55
2019-03-05T23:35:36.554Z,98406.83
2019-03-05T23:38:50.049Z,98406.68
2019-03-05T23:42:03.855Z,98410.61
2019-03-05T23:45:17.749Z,98411.92
2019-03-05T23:48:31.343Z,98412.31
2019-03-05T23:51:45.234Z,98416.14
2019-03-05T23:54:59.080Z,98406.57
2019-03-05T23:58:12.676Z,98401.36
